createdAt,value
2023-03-31T00:01:42.562Z,13.76
2023-03-31T00:04:10.027Z,14.03
2023-03-31T00:06:38.411Z,13.76
2023-03-31T00:09:07.032Z,13.32
2023-03-31T00:11:33.657Z,14.06
2023-03-31T00:14:00.299Z,13.72
2023-03-31T00:16:27.362Z,13.60
2023-03-31T00:18:55.260Z,13.55
2023-03-31T00:21:29.430Z,13.83
2023-03-31T00:23:58.139Z,14.25
2023-03-31T00:26:26.235Z,13.68
2023-03-31T00:28:53.731Z,13.61
2023-03-31T00:31:21.008Z,13.75
2023-03-31T00:33:48.722Z,13.75
2023-03-31T00:36:21.025Z,13.37
2023-03-31T00:38:51.523Z,13.95
2023-03-31T00:41:18.139Z,13.45
2023-03-31T00:44:10.585Z,13.75
2023-03-31T00:46:42.587Z,13.93
2023-03-31T00:49:16.262Z,13.98
2023-03-31T00:51:43.482Z,13.53
2023-03-31T00:54:11.689Z,13.84
2023-03-31T00:56:40.417Z,13.59
2023-03-31T00:59:09.201Z,13.92
2023-03-31T01:01:36.398Z,14.10
2023-03-31T01:04:03.960Z,13.65
2023-03-31T01:06:30.960Z,13.70
2023-03-31T01:08:57.821Z,13.53
2023-03-31T01:11:25.207Z,13.19
2023-03-31T01:13:56.020Z,13.58
2023-03-31T01:16:22.794Z,13.20
2023-03-31T01:18:50.131Z,13.57
2023-03-31T01:21:38.978Z,14.20
2023-03-31T01:24:37.964Z,13.60
2023-03-31T01:27:50.822Z,13.32
2023-03-31T01:30:17.689Z,13.36
2023-03-31T01:33:03.423Z,13.30
2023-03-31T01:35:48.289Z,13.54
2023-03-31T01:38:52.762Z,13.27
2023-03-31T01:41:31.443Z,13.38
2023-03-31T01:44:10.358Z,12.97
2023-03-31T01:46:42.007Z,13.33
2023-03-31T01:49:43.555Z,12.52
2023-03-31T01:52:22.345Z,12.30
2023-03-31T01:54:53.976Z,12.47
2023-03-31T01:57:28.056Z,12.68
2023-03-31T02:00:11.517Z,12.59
2023-03-31T02:02:42.454Z,12.38
2023-03-31T02:05:25.949Z,12.53
2023-03-31T02:07:55.678Z,12.43
2023-03-31T02:10:23.782Z,12.86
2023-03-31T02:12:51.689Z,12.67
2023-03-31T02:15:24.858Z,12.59
2023-03-31T02:17:54.704Z,12.30
2023-03-31T02:20:23.001Z,12.35
2023-03-31T02:22:52.560Z,12.32
2023-03-31T02:25:23.109Z,11.98
2023-03-31T02:27:59.625Z,12.38
2023-03-31T02:30:43.654Z,12.56
2023-03-31T02:33:10.231Z,12.29
2023-03-31T02:35:37.178Z,13.14
2023-03-31T02:38:06.700Z,13.11
2023-03-31T02:40:33.285Z,13.37
2023-03-31T02:43:00.270Z,13.73
2023-03-31T02:45:38.538Z,14.01
2023-03-31T02:48:06.945Z,13.99
2023-03-31T02:50:44.203Z,13.79
2023-03-31T02:53:20.409Z,14.06
2023-03-31T02:56:03.381Z,13.95
2023-03-31T02:58:59.361Z,14.11
2023-03-31T03:02:04.426Z,13.88
2023-03-31T03:04:38.881Z,13.86
2023-03-31T03:07:14.491Z,13.45
2023-03-31T03:09:57.983Z,13.51
2023-03-31T03:12:27.291Z,13.20
2023-03-31T03:15:05.232Z,13.38
2023-03-31T03:17:39.772Z,13.02
2023-03-31T03:20:10.642Z,12.59
2023-03-31T03:22:38.125Z,13.04
2023-03-31T03:25:10.494Z,12.71
2023-03-31T03:27:37.906Z,12.64
2023-03-31T03:30:06.759Z,12.44
2023-03-31T03:32:33.814Z,12.74
2023-03-31T03:35:01.339Z,12.59
2023-03-31T03:37:29.451Z,12.72
2023-03-31T03:39:55.980Z,12.17
2023-03-31T03:42:22.604Z,12.38
2023-03-31T03:44:49.117Z,12.36
2023-03-31T03:47:15.737Z,12.69
2023-03-31T03:49:42.378Z,12.12
2023-03-31T03:52:08.976Z,12.49
2023-03-31T03:54:35.810Z,12.27
2023-03-31T03:57:02.358Z,12.23
2023-03-31T03:59:28.948Z,11.91
2023-03-31T04:01:55.559Z,12.09
2023-03-31T04:04:22.144Z,11.96
2023-03-31T04:06:48.705Z,12.30
2023-03-31T04:09:15.645Z,12.37
2023-03-31T04:11:42.350Z,12.07
2023-03-31T04:14:08.966Z,11.95
2023-03-31T04:16:35.650Z,12.09
2023-03-31T04:19:04.875Z,12.45
2023-03-31T04:21:35.043Z,12.20
2023-03-31T04:24:04.655Z,12.34
2023-03-31T04:26:42.959Z,12.55
2023-03-31T04:29:12.780Z,12.70
2023-03-31T04:31:42.712Z,12.42
2023-03-31T04:34:14.183Z,12.04
2023-03-31T04:36:42.628Z,12.05
2023-03-31T04:39:12.402Z,12.14
2023-03-31T04:41:38.963Z,12.20
2023-03-31T04:44:05.878Z,12.42
2023-03-31T04:46:33.745Z,12.33
2023-03-31T04:49:00.961Z,12.47
2023-03-31T04:51:27.772Z,12.32
2023-03-31T04:53:54.442Z,12.69
2023-03-31T04:56:22.859Z,12.94
2023-03-31T04:58:49.472Z,12.39
2023-03-31T05:01:18.380Z,12.47
2023-03-31T05:03:47.935Z,12.07
2023-03-31T05:06:16.111Z,12.17
2023-03-31T05:08:43.501Z,12.45
2023-03-31T05:11:10.059Z,12.06
2023-03-31T05:13:36.676Z,11.99
2023-03-31T05:16:08.505Z,11.91
2023-03-31T05:18:35.478Z,11.47
2023-03-31T05:21:16.733Z,11.72
2023-03-31T05:23:43.539Z,11.64
2023-03-31T05:26:10.843Z,11.78
2023-03-31T05:28:38.061Z,11.87
2023-03-31T05:31:06.306Z,11.65
2023-03-31T05:33:33.357Z,11.81
2023-03-31T05:36:02.769Z,11.95
2023-03-31T05:38:31.291Z,12.02
2023-03-31T05:40:58.155Z,12.04
2023-03-31T05:43:24.706Z,12.16
2023-03-31T05:45:51.222Z,11.47
2023-03-31T05:48:17.971Z,11.93
2023-03-31T05:50:44.670Z,11.58
2023-03-31T05:53:11.529Z,11.72
2023-03-31T05:55:39.307Z,12.14
2023-03-31T05:58:06.843Z,11.88
2023-03-31T06:00:33.440Z,12.11
2023-03-31T06:02:59.973Z,11.64
2023-03-31T06:05:27.743Z,11.99
2023-03-31T06:07:54.266Z,11.76
2023-03-31T06:10:21.213Z,12.26
2023-03-31T06:12:47.721Z,11.69
2023-03-31T06:15:14.395Z,12.10
2023-03-31T06:17:41.100Z,11.96
2023-03-31T06:20:20.140Z,12.18
2023-03-31T06:22:54.076Z,12.56
2023-03-31T06:25:20.925Z,11.74
2023-03-31T06:27:47.490Z,11.81
2023-03-31T06:30:14.323Z,11.90
2023-03-31T06:32:40.991Z,12.05
2023-03-31T06:35:07.880Z,11.93
2023-03-31T06:37:34.407Z,11.61
2023-03-31T06:40:00.875Z,11.84
2023-03-31T06:42:27.399Z,11.94
2023-03-31T06:44:55.853Z,11.92
2023-03-31T06:47:22.539Z,11.60
2023-03-31T06:49:49.066Z,12.20
2023-03-31T06:52:15.566Z,12.01
2023-03-31T06:54:43.183Z,12.03
2023-03-31T06:57:09.855Z,11.81
2023-03-31T06:59:36.604Z,11.95
2023-03-31T07:02:03.272Z,12.07
2023-03-31T07:04:29.899Z,12.21
2023-03-31T07:06:58.463Z,11.89
2023-03-31T07:09:24.999Z,11.86
2023-03-31T07:11:51.610Z,12.05
2023-03-31T07:14:18.113Z,12.01
2023-03-31T07:16:44.778Z,11.91
2023-03-31T07:19:11.302Z,12.45
2023-03-31T07:21:37.932Z,12.20
2023-03-31T07:24:04.681Z,12.01
2023-03-31T07:26:31.155Z,11.74
2023-03-31T07:28:57.837Z,11.75
2023-03-31T07:31:24.619Z,11.77
2023-03-31T07:33:51.496Z,11.80
2023-03-31T07:36:18.522Z,11.10
2023-03-31T07:38:47.017Z,11.55
2023-03-31T07:41:14.707Z,11.57
2023-03-31T07:43:41.411Z,11.51
2023-03-31T07:46:14.598Z,11.37
2023-03-31T07:48:41.255Z,11.83
2023-03-31T07:51:08.059Z,11.50
2023-03-31T07:53:34.836Z,11.62
2023-03-31T07:56:01.406Z,12.23
2023-03-31T07:58:28.238Z,12.42
2023-03-31T08:00:54.759Z,11.60
2023-03-31T08:03:21.350Z,12.21
2023-03-31T08:05:49.438Z,12.18
2023-03-31T08:08:17.934Z,11.89
2023-03-31T08:10:45.062Z,12.05
2023-03-31T08:13:11.510Z,11.82
2023-03-31T08:15:38.012Z,12.02
2023-03-31T08:18:05.410Z,12.31
2023-03-31T08:20:32.172Z,12.25
2023-03-31T08:22:58.705Z,12.67
2023-03-31T08:25:25.202Z,13.13
2023-03-31T08:27:52.069Z,12.14
2023-03-31T08:30:20.020Z,12.61
2023-03-31T08:32:46.709Z,12.46
2023-03-31T08:35:13.431Z,12.30
2023-03-31T08:37:39.966Z,12.23
2023-03-31T08:40:09.668Z,12.26
2023-03-31T08:42:49.655Z,12.29
2023-03-31T08:45:34.433Z,12.83
2023-03-31T08:48:07.521Z,12.90
2023-03-31T08:50:42.828Z,12.99
2023-03-31T08:53:21.020Z,12.53
2023-03-31T08:55:56.022Z,12.84
2023-03-31T08:58:41.478Z,12.87
2023-03-31T09:01:44.118Z,13.15
2023-03-31T09:04:25.953Z,13.42
2023-03-31T09:07:11.173Z,13.50
2023-03-31T09:09:59.562Z,13.90
2023-03-31T09:12:35.026Z,14.24
2023-03-31T09:15:14.030Z,14.17
2023-03-31T09:17:45.262Z,13.83
2023-03-31T09:20:15.951Z,13.66
2023-03-31T09:22:49.153Z,13.99
2023-03-31T09:25:32.613Z,13.97
2023-03-31T09:28:00.284Z,13.81
2023-03-31T09:30:27.694Z,13.93
2023-03-31T09:33:12.619Z,14.21
2023-03-31T09:35:39.317Z,14.46
2023-03-31T09:38:06.327Z,13.76
2023-03-31T09:40:34.570Z,13.25
2023-03-31T09:43:01.026Z,13.16
2023-03-31T09:45:27.935Z,14.17
2023-03-31T09:47:56.274Z,14.28
2023-03-31T09:50:25.092Z,13.11
2023-03-31T09:53:14.905Z,13.01
2023-03-31T09:55:45.698Z,13.02
2023-03-31T09:58:15.195Z,12.38
2023-03-31T10:01:00.794Z,11.58
2023-03-31T10:03:29.340Z,12.37
2023-03-31T10:05:58.792Z,12.79
2023-03-31T10:08:33.629Z,13.12
2023-03-31T10:11:03.208Z,13.60
2023-03-31T10:13:37.368Z,13.50
2023-03-31T10:16:08.758Z,13.15
2023-03-31T10:18:37.653Z,14.04
2023-03-31T10:21:07.235Z,14.57
2023-03-31T10:23:35.795Z,14.51
2023-03-31T10:26:03.429Z,13.47
2023-03-31T10:28:35.203Z,13.37
2023-03-31T10:31:02.966Z,13.55
2023-03-31T10:33:31.754Z,13.87
2023-03-31T10:36:09.045Z,13.65
2023-03-31T10:38:39.984Z,14.02
2023-03-31T10:41:07.024Z,14.01
2023-03-31T10:43:47.479Z,13.56
2023-03-31T10:46:13.988Z,14.15
2023-03-31T10:48:42.263Z,14.72
2023-03-31T10:51:15.817Z,14.91
2023-03-31T10:53:46.415Z,14.44
2023-03-31T10:56:15.995Z,14.88
2023-03-31T10:59:10.408Z,14.69
2023-03-31T11:01:49.011Z,14.90
2023-03-31T11:04:21.210Z,14.84
2023-03-31T11:07:27.498Z,14.56
2023-03-31T11:10:15.944Z,13.73
2023-03-31T11:12:54.705Z,13.55
2023-03-31T11:15:27.441Z,13.03
2023-03-31T11:17:54.217Z,13.29
2023-03-31T11:20:23.466Z,13.53
2023-03-31T11:23:01.960Z,13.91
2023-03-31T11:26:07.545Z,13.18
2023-03-31T11:28:46.882Z,13.84
2023-03-31T11:31:28.809Z,14.27
2023-03-31T11:34:17.443Z,14.90
2023-03-31T11:36:57.328Z,15.77
2023-03-31T11:40:02.936Z,16.74
2023-03-31T11:42:37.049Z,17.93
2023-03-31T11:45:18.634Z,19.56
2023-03-31T11:47:47.158Z,23.55
2023-03-31T11:50:18.051Z,23.33
2023-03-31T11:52:52.365Z,21.90
2023-03-31T11:55:21.773Z,19.85
2023-03-31T11:57:51.924Z,16.85
2023-03-31T12:00:21.873Z,14.32
2023-03-31T12:02:51.445Z,12.48
2023-03-31T12:05:18.774Z,11.74
2023-03-31T12:07:56.498Z,11.74
2023-03-31T12:10:29.937Z,11.95
2023-03-31T12:13:03.284Z,11.93
2023-03-31T12:15:31.336Z,11.88
2023-03-31T12:18:04.108Z,12.45
2023-03-31T12:20:33.777Z,12.58
2023-03-31T12:23:01.735Z,12.53
2023-03-31T12:25:39.620Z,12.12
2023-03-31T12:28:06.804Z,12.35
2023-03-31T12:30:39.498Z,12.13
2023-03-31T12:33:32.146Z,12.98
2023-03-31T12:36:11.979Z,13.67
2023-03-31T12:39:02.793Z,13.84
2023-03-31T12:41:48.073Z,13.47
2023-03-31T12:44:25.829Z,13.38
2023-03-31T12:47:16.212Z,14.07
2023-03-31T12:50:20.903Z,14.28
2023-03-31T12:52:58.626Z,14.28
2023-03-31T12:55:37.877Z,14.97
2023-03-31T12:58:22.833Z,15.43
2023-03-31T13:01:01.727Z,15.50
2023-03-31T13:03:54.337Z,15.42
2023-03-31T13:06:30.370Z,15.81
2023-03-31T13:09:11.319Z,15.30
2023-03-31T13:11:39.255Z,15.02
2023-03-31T13:14:18.018Z,15.41
2023-03-31T13:16:45.803Z,13.89
2023-03-31T13:19:28.242Z,14.60
2023-03-31T13:21:59.602Z,13.89
2023-03-31T13:24:27.189Z,14.24
2023-03-31T13:26:56.780Z,14.41
2023-03-31T13:29:53.715Z,14.18
2023-03-31T13:32:24.085Z,14.32
2023-03-31T13:35:00.335Z,14.74
2023-03-31T13:38:01.446Z,14.95
2023-03-31T13:41:09.732Z,15.49
2023-03-31T13:43:58.856Z,15.42
2023-03-31T13:47:04.299Z,15.39
2023-03-31T13:50:01.875Z,15.40
2023-03-31T13:52:37.317Z,15.43
2023-03-31T13:55:25.623Z,15.79
2023-03-31T13:58:19.982Z,15.97
2023-03-31T14:00:53.112Z,15.63
2023-03-31T14:03:41.599Z,15.48
2023-03-31T14:06:38.408Z,14.70
2023-03-31T14:09:11.041Z,14.99
2023-03-31T14:11:37.946Z,15.06
2023-03-31T14:14:14.715Z,15.82
2023-03-31T14:16:46.017Z,15.23
2023-03-31T14:19:45.276Z,15.02
2023-03-31T14:22:39.885Z,15.13
2023-03-31T14:25:40.855Z,15.47
2023-03-31T14:28:16.636Z,15.34
2023-03-31T14:30:58.686Z,15.76
2023-03-31T14:33:43.603Z,16.19
2023-03-31T14:36:52.807Z,16.27
2023-03-31T14:39:22.234Z,16.27
2023-03-31T14:41:58.210Z,15.94
2023-03-31T14:44:25.898Z,15.71
2023-03-31T14:46:52.780Z,16.13
2023-03-31T14:49:38.912Z,16.78
2023-03-31T14:52:15.166Z,16.40
2023-03-31T14:54:42.834Z,16.17
2023-03-31T14:57:11.670Z,17.32
2023-03-31T14:59:38.601Z,18.03
2023-03-31T15:02:13.676Z,17.07
2023-03-31T15:04:44.883Z,18.50
2023-03-31T15:07:12.588Z,17.68
2023-03-31T15:09:40.028Z,17.29
2023-03-31T15:12:17.691Z,16.37
2023-03-31T15:14:50.289Z,15.95
2023-03-31T15:17:22.949Z,16.55
2023-03-31T15:19:58.473Z,16.59
2023-03-31T15:22:29.752Z,17.03
2023-03-31T15:24:56.799Z,16.92
2023-03-31T15:27:37.762Z,16.35
2023-03-31T15:30:07.537Z,16.52
2023-03-31T15:32:39.356Z,17.03
2023-03-31T15:35:20.950Z,17.46
2023-03-31T15:37:50.996Z,16.93
2023-03-31T15:40:24.254Z,15.79
2023-03-31T15:43:02.058Z,15.50
2023-03-31T15:45:53.874Z,15.17
2023-03-31T15:48:36.370Z,15.30
2023-03-31T15:51:26.147Z,15.43
2023-03-31T15:53:53.926Z,15.74
2023-03-31T15:56:31.454Z,14.95
2023-03-31T15:59:02.982Z,15.22
2023-03-31T16:01:44.608Z,14.33
2023-03-31T16:04:13.342Z,13.89
2023-03-31T16:06:52.988Z,13.25
2023-03-31T16:09:24.898Z,13.34
2023-03-31T16:12:01.767Z,12.75
2023-03-31T16:14:33.864Z,13.00
2023-03-31T16:17:04.436Z,12.78
2023-03-31T16:19:40.366Z,12.81
2023-03-31T16:22:07.367Z,12.82
2023-03-31T16:24:35.279Z,12.61
2023-03-31T16:27:06.507Z,12.69
2023-03-31T16:29:37.417Z,13.23
2023-03-31T16:32:16.013Z,13.09
2023-03-31T16:34:54.066Z,13.45
2023-03-31T16:37:23.515Z,13.08
2023-03-31T16:39:50.474Z,13.34
2023-03-31T16:42:17.166Z,13.08
2023-03-31T16:44:44.399Z,12.65
2023-03-31T16:47:20.400Z,12.73
2023-03-31T16:49:54.458Z,12.97
2023-03-31T16:52:21.033Z,13.04
2023-03-31T16:54:47.495Z,12.78
2023-03-31T16:57:15.315Z,13.01
2023-03-31T16:59:42.556Z,12.93
2023-03-31T17:02:10.928Z,13.06
2023-03-31T17:04:37.552Z,13.04
2023-03-31T17:07:04.565Z,12.30
2023-03-31T17:09:31.146Z,12.80
2023-03-31T17:11:57.667Z,12.84
2023-03-31T17:14:24.670Z,12.78
2023-03-31T17:16:51.287Z,12.93
2023-03-31T17:19:17.870Z,13.06
2023-03-31T17:21:44.486Z,13.18
2023-03-31T17:24:11.379Z,12.83
2023-03-31T17:26:39.328Z,12.67
2023-03-31T17:29:06.266Z,11.97
2023-03-31T17:31:32.898Z,12.61
2023-03-31T17:33:59.734Z,12.75
2023-03-31T17:36:26.600Z,12.62
2023-03-31T17:38:53.322Z,12.86
2023-03-31T17:41:21.224Z,12.85
2023-03-31T17:43:49.160Z,12.80
2023-03-31T17:46:16.443Z,12.91
2023-03-31T17:48:43.466Z,12.85
2023-03-31T17:51:15.926Z,12.98
2023-03-31T17:53:44.881Z,13.30
2023-03-31T17:56:11.822Z,13.21
2023-03-31T17:58:38.432Z,13.03
2023-03-31T18:01:07.092Z,12.98
2023-03-31T18:03:34.145Z,12.90
2023-03-31T18:06:08.818Z,12.71
2023-03-31T18:08:36.101Z,12.68
2023-03-31T18:11:04.934Z,12.60
2023-03-31T18:13:32.551Z,12.80
2023-03-31T18:15:59.140Z,12.50
2023-03-31T18:18:28.991Z,12.75
2023-03-31T18:20:56.236Z,12.68
2023-03-31T18:23:23.172Z,12.49
2023-03-31T18:25:49.716Z,12.42
2023-03-31T18:28:17.700Z,12.56
2023-03-31T18:30:44.457Z,12.47
2023-03-31T18:33:11.823Z,12.68
2023-03-31T18:35:39.101Z,12.28
2023-03-31T18:38:05.807Z,12.15
2023-03-31T18:40:32.487Z,12.05
2023-03-31T18:43:01.398Z,12.45
2023-03-31T18:45:28.318Z,12.05
2023-03-31T18:47:55.012Z,12.39
2023-03-31T18:50:23.535Z,12.09
2023-03-31T18:52:56.282Z,12.05
2023-03-31T18:55:23.303Z,12.23
2023-03-31T18:57:50.297Z,12.32
2023-03-31T19:00:17.685Z,12.05
2023-03-31T19:02:44.608Z,11.95
2023-03-31T19:05:11.555Z,12.40
2023-03-31T19:07:38.189Z,11.95
2023-03-31T19:10:05.634Z,11.67
2023-03-31T19:12:32.203Z,12.32
2023-03-31T19:14:58.691Z,12.13
2023-03-31T19:17:25.676Z,11.93
2023-03-31T19:19:52.564Z,12.15
2023-03-31T19:22:19.113Z,12.22
2023-03-31T19:24:45.629Z,11.80
2023-03-31T19:27:13.006Z,12.05
2023-03-31T19:29:39.843Z,12.17
2023-03-31T19:32:07.115Z,12.46
2023-03-31T19:34:34.165Z,12.32
2023-03-31T19:37:02.126Z,12.45
2023-03-31T19:39:28.900Z,12.44
2023-03-31T19:41:58.182Z,12.13
2023-03-31T19:44:24.698Z,11.90
2023-03-31T19:46:51.422Z,12.26
2023-03-31T19:49:18.706Z,12.09
2023-03-31T19:51:45.920Z,11.84
2023-03-31T19:54:12.695Z,12.43
2023-03-31T19:56:39.406Z,12.17
2023-03-31T19:59:08.651Z,11.89
2023-03-31T20:01:36.400Z,12.12
2023-03-31T20:04:04.038Z,12.03
2023-03-31T20:06:31.783Z,12.13
2023-03-31T20:09:01.367Z,11.82
2023-03-31T20:11:30.889Z,11.82
2023-03-31T20:13:58.154Z,11.92
2023-03-31T20:16:27.433Z,11.79
2023-03-31T20:18:56.678Z,11.55
2023-03-31T20:21:27.209Z,11.72
2023-03-31T20:23:57.292Z,11.75
2023-03-31T20:26:26.443Z,11.96
2023-03-31T20:28:54.901Z,11.62
2023-03-31T20:31:24.448Z,11.75
2023-03-31T20:33:52.463Z,11.95
2023-03-31T20:36:24.829Z,10.77
2023-03-31T20:38:53.172Z,11.67
2023-03-31T20:41:22.581Z,11.73
2023-03-31T20:43:50.556Z,11.70
2023-03-31T20:46:17.400Z,11.10
2023-03-31T20:48:46.588Z,11.67
2023-03-31T20:51:16.325Z,11.65
2023-03-31T20:53:44.885Z,11.03
2023-03-31T20:56:13.527Z,11.91
2023-03-31T20:58:43.196Z,11.78
2023-03-31T21:01:11.349Z,11.69
2023-03-31T21:03:38.054Z,11.59
2023-03-31T21:06:11.255Z,11.52
2023-03-31T21:08:40.722Z,11.65
2023-03-31T21:11:08.401Z,11.09
2023-03-31T21:13:35.012Z,11.35
2023-03-31T21:16:01.979Z,11.19
2023-03-31T21:18:29.436Z,11.12
2023-03-31T21:20:58.766Z,11.43
2023-03-31T21:23:26.743Z,11.62
2023-03-31T21:25:54.978Z,11.36
2023-03-31T21:28:23.585Z,11.32
2023-03-31T21:30:57.968Z,11.68
2023-03-31T21:33:25.177Z,11.57
2023-03-31T21:35:52.626Z,11.72
2023-03-31T21:38:19.842Z,11.33
2023-03-31T21:40:47.713Z,11.14
2023-03-31T21:43:14.316Z,11.19
2023-03-31T21:45:41.249Z,11.22
2023-03-31T21:48:09.662Z,11.15
2023-03-31T21:50:36.991Z,11.52
2023-03-31T21:53:04.864Z,11.19
2023-03-31T21:55:32.440Z,11.04
2023-03-31T21:57:59.863Z,11.37
2023-03-31T22:00:26.798Z,11.58
2023-03-31T22:03:02.215Z,11.34
2023-03-31T22:05:37.747Z,11.35
2023-03-31T22:08:04.317Z,11.32
2023-03-31T22:10:30.854Z,11.28
2023-03-31T22:12:57.334Z,11.47
2023-03-31T22:15:24.280Z,11.72
2023-03-31T22:17:50.809Z,11.52
2023-03-31T22:20:18.106Z,11.26
2023-03-31T22:22:44.611Z,11.38
2023-03-31T22:25:11.137Z,10.95
2023-03-31T22:27:37.625Z,11.13
2023-03-31T22:30:04.577Z,11.14
2023-03-31T22:32:31.359Z,11.39
2023-03-31T22:34:57.963Z,11.37
2023-03-31T22:37:24.789Z,11.52
2023-03-31T22:39:51.494Z,11.37
2023-03-31T22:42:17.956Z,11.23
2023-03-31T22:44:44.451Z,11.17
2023-03-31T22:47:11.316Z,11.24
2023-03-31T22:49:37.810Z,11.64
2023-03-31T22:52:04.471Z,11.69
2023-03-31T22:54:31.865Z,11.04
2023-03-31T22:56:58.820Z,11.25
2023-03-31T22:59:25.540Z,11.12
2023-03-31T23:01:54.961Z,11.11
2023-03-31T23:04:22.454Z,11.81
2023-03-31T23:06:49.292Z,11.21
2023-03-31T23:09:16.640Z,11.68
2023-03-31T23:11:45.010Z,11.38
2023-03-31T23:14:12.192Z,11.25
2023-03-31T23:16:39.178Z,11.22
2023-03-31T23:19:06.092Z,11.68
2023-03-31T23:21:33.378Z,11.43
2023-03-31T23:24:01.562Z,11.47
2023-03-31T23:26:29.240Z,11.76
2023-03-31T23:28:56.381Z,11.58
2023-03-31T23:31:31.242Z,11.48
2023-03-31T23:33:58.732Z,11.47
2023-03-31T23:36:25.894Z,11.34
2023-03-31T23:38:54.095Z,11.37
2023-03-31T23:41:21.201Z,11.26
2023-03-31T23:43:47.685Z,11.49
2023-03-31T23:46:14.378Z,11.42
2023-03-31T23:48:41.213Z,11.05
2023-03-31T23:51:08.673Z,11.05
2023-03-31T23:53:35.705Z,11.08
2023-03-31T23:56:05.053Z,11.12
2023-03-31T23:58:31.912Z,11.51
